KSGF/SGF METAR and TAF weather

Enter ICAO airport designator
Station Type Date Time Source
KSGF METAR 2020/03/28 08:52 UTC NOAA

KSGF 280852Z 16008KT 10SM CLR 19/17 A2961 RMK AO2 SLP015 T01890167 58016


Station Type Date Time Source
KSGF Decoded METAR 2020/03/28 08:52 UTC NOAA

SPRINGFIELD-BRANSON NATIONAL, MO, United States (KSGF) 37-14N 93-23W 389M
Mar 28, 2020 - 04:52 AM EDT / 2020.03.28 0852 UTC
Wind: from the SSE (160 degrees) at 9 MPH (8 KT):0
Visibility: 10 mile(s):0
Sky conditions: clear
Temperature: 66.0 F (18.9 C)
Dew Point: 62.1 F (16.7 C)
Relative Humidity: 87%
Pressure (altimeter): 29.61 in. Hg (1002 hPa)
Pressure tendency: 0.05 inches (1.6 hPa) lower than three hours ago
ob: KSGF 280852Z 16008KT 10SM CLR 19/17 A2961 RMK AO2 SLP015 T01890167 58016
cycle: 9

Station Type Date Time Source
KSGF TAF 2020/03/28 06:22 UTC NOAA

TAF KSGF 280520Z 2806/2906 17012KT P6SM BKN060 OVC120 WS020/22040KT
FM281300 19015KT P6SM BKN120
FM281500 20018G27KT P6SM VCTS BKN040CB OVC150
FM282000 23021G33KT P6SM SCT250
FM282300 26019G27KT P6SM SCT200

Example: see airport list